createdAt,value
2017-11-10T00:00:13.042Z,6.70
2017-11-10T00:02:41.093Z,6.70
2017-11-10T00:05:08.729Z,6.70
2017-11-10T00:07:38.103Z,6.80
2017-11-10T00:10:05.538Z,6.80
2017-11-10T00:12:33.175Z,6.80
2017-11-10T00:15:00.817Z,6.80
2017-11-10T00:17:28.525Z,6.70
2017-11-10T00:19:56.152Z,6.70
2017-11-10T00:22:23.781Z,6.70
2017-11-10T00:24:51.461Z,6.60
2017-11-10T00:27:19.092Z,6.70
2017-11-10T00:29:47.547Z,6.70
2017-11-10T00:32:16.215Z,6.70
2017-11-10T00:34:43.840Z,6.70
2017-11-10T00:37:11.463Z,6.60
2017-11-10T00:39:39.157Z,6.50
2017-11-10T00:42:07.601Z,6.30
2017-11-10T00:44:36.197Z,6.20
2017-11-10T00:47:03.901Z,6.00
2017-11-10T00:49:32.478Z,6.10
2017-11-10T00:52:01.050Z,6.20
2017-11-10T00:57:09.826Z,6.40
2017-11-10T00:59:37.522Z,6.40
2017-11-10T01:02:05.430Z,6.60
2017-11-10T01:04:32.802Z,6.60
2017-11-10T01:07:00.511Z,6.50
2017-11-10T01:09:28.973Z,6.50
2017-11-10T01:11:56.617Z,6.40
2017-11-10T01:14:24.378Z,6.50
2017-11-10T01:16:52.954Z,6.40
2017-11-10T01:19:22.186Z,6.50
2017-11-10T01:21:50.722Z,6.30
2017-11-10T01:26:46.830Z,6.20
2017-11-10T01:29:15.474Z,6.20
2017-11-10T01:31:44.059Z,6.20
2017-11-10T01:34:12.658Z,6.20
2017-11-10T01:36:41.323Z,6.30
2017-11-10T01:39:08.959Z,6.10
2017-11-10T01:41:37.058Z,6.10
2017-11-10T01:44:10.311Z,6.00
2017-11-10T01:46:38.843Z,6.10
2017-11-10T01:49:06.477Z,6.10
2017-11-10T01:51:34.186Z,6.10
2017-11-10T01:54:01.823Z,6.10
2017-11-10T01:56:29.458Z,6.10
2017-11-10T01:58:57.648Z,6.10
2017-11-10T02:01:25.287Z,6.20
2017-11-10T02:06:32.082Z,6.30
2017-11-10T02:09:00.685Z,6.20
2017-11-10T02:11:29.278Z,6.30
2017-11-10T02:13:57.913Z,6.30
2017-11-10T02:16:26.514Z,6.20
2017-11-10T02:18:55.009Z,6.30
2017-11-10T02:21:22.718Z,6.20
2017-11-10T02:23:50.355Z,6.10
2017-11-10T02:26:18.814Z,6.10
2017-11-10T02:28:47.462Z,6.10
2017-11-10T02:31:15.930Z,6.20
2017-11-10T02:33:47.342Z,6.20
2017-11-10T02:36:14.995Z,6.20
2017-11-10T02:38:42.631Z,6.10
2017-11-10T02:41:10.322Z,6.10
2017-11-10T02:43:37.955Z,6.10
2017-11-10T02:46:05.595Z,6.00
2017-11-10T02:48:34.124Z,5.90
2017-11-10T02:51:01.777Z,5.90
2017-11-10T02:53:29.400Z,5.90
2017-11-10T02:55:57.098Z,5.90
2017-11-10T02:58:25.674Z,5.90
2017-11-10T03:00:54.624Z,5.80
2017-11-10T03:03:24.169Z,5.60
2017-11-10T03:05:51.809Z,5.70
2017-11-10T03:08:19.451Z,5.80
2017-11-10T03:10:47.138Z,5.90
2017-11-10T03:13:14.765Z,5.90
2017-11-10T03:18:21.668Z,6.00
2017-11-10T03:20:49.317Z,6.10
2017-11-10T03:23:16.948Z,6.10
2017-11-10T03:25:44.646Z,5.80
2017-11-10T03:28:13.266Z,5.70
2017-11-10T03:30:40.886Z,5.60
2017-11-10T03:33:08.577Z,5.60
2017-11-10T03:35:36.213Z,5.60
2017-11-10T03:38:03.832Z,5.60
2017-11-10T03:40:31.504Z,5.70
2017-11-10T03:42:59.127Z,5.80
2017-11-10T03:45:26.754Z,5.80
2017-11-10T03:47:54.474Z,5.80
2017-11-10T03:50:22.079Z,5.80
2017-11-10T03:52:49.709Z,5.80
2017-11-10T03:55:17.382Z,5.70
2017-11-10T03:57:44.997Z,5.60
2017-11-10T04:00:13.128Z,5.50
2017-11-10T04:02:40.824Z,5.40
2017-11-10T04:05:08.445Z,5.40
2017-11-10T04:07:36.066Z,5.30
2017-11-10T04:10:03.744Z,5.20
2017-11-10T04:14:58.989Z,5.20
2017-11-10T04:17:26.675Z,5.20
2017-11-10T04:19:54.293Z,5.20
2017-11-10T04:22:21.925Z,5.10
2017-11-10T04:24:49.636Z,5.20
2017-11-10T04:27:17.264Z,5.00
2017-11-10T04:29:44.887Z,5.00
2017-11-10T04:32:12.561Z,5.00
2017-11-10T04:34:40.187Z,5.10
2017-11-10T04:37:07.811Z,5.00
2017-11-10T04:39:35.518Z,5.00
2017-11-10T04:42:03.556Z,4.80
2017-11-10T04:47:11.343Z,4.80
2017-11-10T04:49:39.799Z,4.80
2017-11-10T04:52:07.527Z,4.80
2017-11-10T04:54:35.981Z,4.80
2017-11-10T04:57:03.611Z,4.80
2017-11-10T04:59:31.228Z,4.70
2017-11-10T05:01:59.726Z,4.70
2017-11-10T05:04:27.359Z,4.70
2017-11-10T05:06:54.973Z,4.60
2017-11-10T05:09:22.674Z,4.60
2017-11-10T05:11:50.304Z,4.50
2017-11-10T05:14:18.732Z,4.40
2017-11-10T05:16:46.422Z,4.40
2017-11-10T05:19:14.049Z,4.40
2017-11-10T05:21:41.668Z,4.40
2017-11-10T05:24:10.198Z,4.30
2017-11-10T05:26:37.822Z,4.10
2017-11-10T05:29:05.444Z,4.00
2017-11-10T05:31:33.119Z,4.00
2017-11-10T05:34:00.745Z,4.10
2017-11-10T05:36:28.365Z,4.10
2017-11-10T05:38:56.056Z,4.10
2017-11-10T05:41:23.690Z,4.10
2017-11-10T05:43:51.310Z,4.10
2017-11-10T05:46:18.986Z,4.10
2017-11-10T05:48:46.641Z,4.10
2017-11-10T05:51:14.243Z,4.10
2017-11-10T05:53:41.938Z,4.10
2017-11-10T05:56:09.560Z,4.00
2017-11-10T05:58:37.184Z,3.90
2017-11-10T06:03:47.554Z,3.90
2017-11-10T06:06:15.546Z,3.90
2017-11-10T06:08:43.164Z,3.70
2017-11-10T06:11:10.788Z,3.80
2017-11-10T06:13:39.293Z,3.90
2017-11-10T06:16:06.927Z,3.90
2017-11-10T06:18:34.538Z,3.80
2017-11-10T06:21:02.268Z,3.80
2017-11-10T06:23:29.854Z,3.80
2017-11-10T06:25:57.485Z,3.80
2017-11-10T06:28:25.167Z,3.70
2017-11-10T06:30:52.793Z,3.70
2017-11-10T06:33:20.435Z,3.80
2017-11-10T06:35:48.118Z,3.70
2017-11-10T06:38:15.763Z,3.70
2017-11-10T06:40:43.406Z,3.90
2017-11-10T06:45:39.687Z,4.00
2017-11-10T06:48:07.309Z,4.00
2017-11-10T06:53:02.610Z,4.20
2017-11-10T06:55:30.239Z,4.10
2017-11-10T06:57:57.907Z,4.20
2017-11-10T07:00:25.533Z,4.30
2017-11-10T07:02:53.145Z,4.20
2017-11-10T07:05:20.839Z,4.10
2017-11-10T07:07:48.445Z,4.10
2017-11-10T07:10:16.066Z,4.20
2017-11-10T07:12:43.774Z,4.20
2017-11-10T07:15:11.391Z,4.30
2017-11-10T07:17:39.024Z,4.30
2017-11-10T07:20:06.720Z,4.30
2017-11-10T07:22:37.464Z,4.40
2017-11-10T07:27:44.484Z,4.60
2017-11-10T07:30:12.121Z,4.70
2017-11-10T07:32:39.744Z,4.90
2017-11-10T07:35:07.419Z,5.00
2017-11-10T07:37:35.036Z,5.00
2017-11-10T07:40:02.660Z,4.90
2017-11-10T07:45:10.895Z,4.80
2017-11-10T07:47:39.423Z,4.90
2017-11-10T07:52:34.693Z,5.00
2017-11-10T07:55:03.378Z,4.80
2017-11-10T07:57:31.025Z,4.80
2017-11-10T07:59:58.670Z,4.90
2017-11-10T08:02:28.727Z,4.90
2017-11-10T08:04:56.358Z,4.90
2017-11-10T08:07:24.837Z,4.90
2017-11-10T08:09:52.985Z,5.00
2017-11-10T08:12:20.627Z,4.90
2017-11-10T08:14:48.260Z,4.80
2017-11-10T08:17:15.965Z,4.90
2017-11-10T08:19:43.614Z,5.00
2017-11-10T08:22:11.804Z,5.00
2017-11-10T08:24:39.485Z,5.10
2017-11-10T08:27:07.123Z,5.20
2017-11-10T08:29:34.750Z,5.20
2017-11-10T08:32:02.843Z,5.30
2017-11-10T08:34:30.467Z,5.60
2017-11-10T08:36:58.092Z,5.70
2017-11-10T08:39:25.773Z,5.70
2017-11-10T08:41:53.414Z,5.70
2017-11-10T08:44:21.042Z,5.80
2017-11-10T08:46:48.746Z,5.90
2017-11-10T08:49:18.379Z,5.90
2017-11-10T08:51:46.002Z,6.00
2017-11-10T08:54:13.694Z,6.00
2017-11-10T08:56:41.322Z,6.00
2017-11-10T08:59:10.812Z,6.20
2017-11-10T09:01:36.840Z,7.10
2017-11-10T09:04:05.317Z,7.30
2017-11-10T09:06:33.762Z,7.20
2017-11-10T09:11:40.557Z,7.50
2017-11-10T09:16:35.862Z,8.00
2017-11-10T09:19:03.485Z,7.50
2017-11-10T09:21:31.185Z,7.80
2017-11-10T09:23:58.819Z,7.90
2017-11-10T09:26:27.276Z,8.40
2017-11-10T09:29:01.102Z,8.10
2017-11-10T09:34:18.174Z,7.80
2017-11-10T09:36:51.635Z,7.80
2017-11-10T09:42:03.679Z,8.30
2017-11-10T09:44:33.345Z,8.00
2017-11-10T09:57:49.082Z,8.50
2017-11-10T10:00:23.070Z,8.80
2017-11-10T10:05:40.189Z,8.80
2017-11-10T10:24:18.440Z,8.70
2017-11-10T10:26:46.149Z,8.40
2017-11-10T10:29:13.779Z,8.30
2017-11-10T10:31:41.426Z,8.40
2017-11-10T10:34:09.113Z,7.90
2017-11-10T10:36:36.757Z,8.00
2017-11-10T10:39:04.400Z,7.90
2017-11-10T10:41:32.093Z,8.20
2017-11-10T10:43:59.722Z,8.20
2017-11-10T10:46:28.206Z,8.10
2017-11-10T10:48:55.906Z,8.40
2017-11-10T10:51:23.526Z,8.60
2017-11-10T10:53:51.160Z,8.40
2017-11-10T10:56:18.875Z,8.50
2017-11-10T10:58:46.515Z,8.80
2017-11-10T11:01:14.148Z,8.30
2017-11-10T11:03:41.842Z,8.50
2017-11-10T11:06:09.468Z,8.20
2017-11-10T11:08:37.095Z,8.40
2017-11-10T11:11:04.798Z,8.40
2017-11-10T11:13:32.753Z,7.90
2017-11-10T11:16:00.297Z,7.70
2017-11-10T11:18:28.005Z,7.80
2017-11-10T11:20:55.741Z,7.80
2017-11-10T11:23:23.324Z,7.80
2017-11-10T11:25:51.031Z,7.80
2017-11-10T11:28:18.888Z,7.60
2017-11-10T11:30:46.476Z,7.80
2017-11-10T11:33:14.165Z,8.20
2017-11-10T11:35:41.782Z,8.00
2017-11-10T11:38:09.405Z,8.20
2017-11-10T11:40:37.093Z,8.30
2017-11-10T11:45:32.340Z,8.50
2017-11-10T11:50:39.154Z,8.40
2017-11-10T11:53:06.844Z,8.60
2017-11-10T11:55:34.470Z,8.90
2017-11-10T11:58:02.099Z,8.80
2017-11-10T12:00:29.784Z,8.80
2017-11-10T12:02:57.660Z,8.80
2017-11-10T12:05:25.279Z,8.70
2017-11-10T12:07:52.973Z,8.80
2017-11-10T12:10:20.602Z,8.70
2017-11-10T12:12:48.248Z,8.60
2017-11-10T12:15:16.873Z,8.40
2017-11-10T12:17:44.493Z,8.60
2017-11-10T12:20:12.983Z,8.70
2017-11-10T12:25:09.205Z,8.60
2017-11-10T12:27:36.794Z,8.40
2017-11-10T12:30:04.478Z,8.50
2017-11-10T12:32:32.103Z,8.70
2017-11-10T12:37:28.268Z,8.60
2017-11-10T12:39:55.892Z,8.60
2017-11-10T12:42:23.502Z,8.50
2017-11-10T12:44:51.182Z,8.60
2017-11-10T12:47:19.618Z,8.50
2017-11-10T12:49:47.254Z,8.20
2017-11-10T12:52:14.960Z,8.30
2017-11-10T12:57:21.760Z,8.40
2017-11-10T12:59:50.328Z,8.40
2017-11-10T13:02:17.957Z,8.50
2017-11-10T13:04:45.670Z,8.40
2017-11-10T13:07:14.023Z,8.40
2017-11-10T13:09:41.650Z,8.50
2017-11-10T13:12:09.351Z,8.50
2017-11-10T13:14:36.993Z,8.40
2017-11-10T13:17:04.622Z,8.60
2017-11-10T13:19:33.278Z,8.60
2017-11-10T13:22:01.859Z,8.70
2017-11-10T13:24:29.510Z,8.70
2017-11-10T13:26:57.220Z,8.70
2017-11-10T13:29:24.847Z,8.80
2017-11-10T13:31:52.475Z,8.60
2017-11-10T13:34:20.162Z,8.60
2017-11-10T13:36:47.792Z,8.60
2017-11-10T13:39:16.387Z,8.50
2017-11-10T13:41:45.054Z,8.40
2017-11-10T13:44:13.533Z,8.50
2017-11-10T13:46:42.159Z,8.50
2017-11-10T13:49:09.853Z,8.60
2017-11-10T13:51:37.481Z,8.40
2017-11-10T13:54:05.931Z,8.60
2017-11-10T13:56:33.636Z,8.60
2017-11-10T13:59:01.273Z,8.50
2017-11-10T14:01:28.906Z,8.40
2017-11-10T14:03:56.608Z,8.40
2017-11-10T14:06:24.247Z,8.30
2017-11-10T14:08:51.882Z,8.30
2017-11-10T14:11:19.570Z,8.40
2017-11-10T14:13:47.203Z,8.40
2017-11-10T14:16:14.849Z,8.40
2017-11-10T14:18:42.523Z,8.40
2017-11-10T14:21:10.167Z,8.40
2017-11-10T14:26:17.822Z,8.20
2017-11-10T14:28:45.442Z,8.30
2017-11-10T14:31:14.010Z,8.20
2017-11-10T14:33:41.717Z,8.30
2017-11-10T14:36:09.338Z,8.30
2017-11-10T14:38:36.966Z,8.30
2017-11-10T14:41:04.726Z,8.20
2017-11-10T14:43:32.306Z,8.20
2017-11-10T14:45:59.937Z,8.40
2017-11-10T14:48:27.620Z,8.40
2017-11-10T14:53:22.864Z,8.40
2017-11-10T14:55:51.537Z,8.40
2017-11-10T15:00:47.246Z,8.40
2017-11-10T15:03:14.960Z,8.40
2017-11-10T15:05:42.833Z,8.20
2017-11-10T15:08:10.487Z,8.30
2017-11-10T15:10:38.199Z,8.30
2017-11-10T15:13:06.172Z,8.20
2017-11-10T15:20:33.204Z,8.30
2017-11-10T15:23:01.341Z,8.30
2017-11-10T15:25:29.052Z,8.30
2017-11-10T15:27:56.679Z,8.20
2017-11-10T15:30:25.290Z,8.20
2017-11-10T15:32:53.007Z,8.30
2017-11-10T15:35:22.440Z,8.40
2017-11-10T15:40:32.583Z,8.20
2017-11-10T15:43:00.215Z,8.20
2017-11-10T15:47:55.552Z,8.30
2017-11-10T15:50:23.170Z,8.30
2017-11-10T15:52:50.797Z,8.20
2017-11-10T15:55:18.505Z,8.10
2017-11-10T15:57:47.430Z,8.10
2017-11-10T16:00:15.070Z,8.10
2017-11-10T16:02:43.221Z,8.00
2017-11-10T16:05:10.812Z,7.90
2017-11-10T16:07:38.961Z,7.80
2017-11-10T16:10:06.642Z,7.80
2017-11-10T16:12:34.258Z,7.70
2017-11-10T16:15:01.891Z,7.70
2017-11-10T16:17:29.608Z,7.60
2017-11-10T16:19:57.229Z,7.70
2017-11-10T16:22:24.849Z,7.70
2017-11-10T16:24:52.551Z,7.60
2017-11-10T16:27:20.169Z,7.70
2017-11-10T16:29:47.792Z,7.60
2017-11-10T16:32:15.482Z,7.70
2017-11-10T16:34:43.117Z,7.80
2017-11-10T16:37:10.763Z,7.80
2017-11-10T16:39:38.452Z,7.90
2017-11-10T16:44:33.696Z,7.80
2017-11-10T16:47:02.362Z,7.90
2017-11-10T16:49:29.980Z,7.80
2017-11-10T16:51:57.616Z,7.80
2017-11-10T16:54:26.117Z,7.70
2017-11-10T16:56:53.744Z,7.70
2017-11-10T16:59:21.371Z,7.70
2017-11-10T17:01:49.902Z,7.70
2017-11-10T17:06:57.461Z,7.70
2017-11-10T17:09:25.085Z,7.80
2017-11-10T17:11:52.791Z,7.70
2017-11-10T17:14:20.605Z,7.70
2017-11-10T17:16:48.241Z,7.70
2017-11-10T17:19:15.878Z,7.60
2017-11-10T17:21:43.575Z,7.50
2017-11-10T17:24:11.203Z,7.60
2017-11-10T17:26:38.829Z,7.60
2017-11-10T17:29:06.522Z,7.60
2017-11-10T17:31:34.149Z,7.50
2017-11-10T17:34:01.781Z,7.60
2017-11-10T17:36:29.473Z,7.60
2017-11-10T17:38:58.041Z,7.50
2017-11-10T17:41:25.683Z,7.60
2017-11-10T17:43:53.374Z,7.60
2017-11-10T17:46:21.009Z,7.60
2017-11-10T17:48:48.680Z,7.60
2017-11-10T17:51:16.404Z,7.50
2017-11-10T17:53:44.382Z,7.40
2017-11-10T17:56:12.017Z,7.50
2017-11-10T17:58:39.726Z,7.50
2017-11-10T18:01:07.349Z,7.50
2017-11-10T18:03:34.997Z,7.60
2017-11-10T18:06:02.714Z,7.50
2017-11-10T18:08:30.339Z,7.50
2017-11-10T18:10:58.104Z,7.50
2017-11-10T18:15:54.349Z,7.50
2017-11-10T18:18:22.406Z,7.50
2017-11-10T18:20:50.126Z,7.50
2017-11-10T18:25:58.142Z,7.40
2017-11-10T18:28:25.798Z,7.50
2017-11-10T18:30:54.370Z,7.50
2017-11-10T18:33:22.049Z,7.30
2017-11-10T18:35:49.661Z,7.20
2017-11-10T18:38:17.300Z,7.10
2017-11-10T18:40:45.005Z,7.00
2017-11-10T18:43:12.615Z,6.70
2017-11-10T18:45:40.241Z,6.90
2017-11-10T18:48:07.951Z,6.80
2017-11-10T18:50:35.582Z,6.90
2017-11-10T18:53:05.234Z,6.90
2017-11-10T18:58:13.300Z,7.30
2017-11-10T19:00:41.008Z,7.40
2017-11-10T19:03:08.629Z,7.40
2017-11-10T19:08:11.422Z,7.60
2017-11-10T19:10:39.050Z,7.40
2017-11-10T19:13:06.683Z,7.30
2017-11-10T19:15:34.393Z,7.30
2017-11-10T19:18:02.031Z,7.30
2017-11-10T19:20:29.707Z,7.20
2017-11-10T19:22:57.323Z,7.10
2017-11-10T19:25:24.951Z,6.90
2017-11-10T19:30:20.565Z,7.00
2017-11-10T19:32:48.218Z,6.90
2017-11-10T19:35:15.759Z,7.00
2017-11-10T19:37:43.501Z,7.00
2017-11-10T19:40:11.130Z,7.00
2017-11-10T19:42:38.760Z,6.90
2017-11-10T19:45:06.647Z,6.70
2017-11-10T19:47:34.243Z,6.70
2017-11-10T19:50:01.881Z,6.70
2017-11-10T19:52:29.570Z,6.60
2017-11-10T19:54:57.186Z,6.60
2017-11-10T19:57:24.829Z,6.60
2017-11-10T19:59:52.521Z,6.60
2017-11-10T20:02:20.985Z,6.70
2017-11-10T20:04:48.611Z,6.70
2017-11-10T20:07:16.300Z,6.60
2017-11-10T20:12:11.635Z,6.50
2017-11-10T20:14:39.325Z,6.50
2017-11-10T20:17:07.029Z,6.40
2017-11-10T20:22:13.792Z,6.60
2017-11-10T20:24:41.460Z,6.60
2017-11-10T20:27:09.084Z,6.70
2017-11-10T20:29:36.812Z,6.70
2017-11-10T20:32:04.451Z,6.70
2017-11-10T20:34:32.961Z,6.80
2017-11-10T20:37:00.642Z,6.80
2017-11-10T20:39:28.257Z,6.80
2017-11-10T20:41:55.881Z,6.80
2017-11-10T20:44:23.571Z,6.80
2017-11-10T20:46:51.675Z,6.70
2017-11-10T20:49:19.468Z,6.80
2017-11-10T20:51:47.460Z,6.80
2017-11-10T20:56:43.319Z,6.50
2017-11-10T20:59:11.191Z,6.50
2017-11-10T21:01:39.147Z,6.40
2017-11-10T21:04:06.699Z,6.40
2017-11-10T21:06:35.380Z,6.40
2017-11-10T21:09:03.039Z,6.50
2017-11-10T21:11:30.684Z,6.40
2017-11-10T21:13:58.377Z,6.40
2017-11-10T21:16:26.013Z,6.50
2017-11-10T21:18:53.644Z,6.70
2017-11-10T21:21:21.357Z,6.60
2017-11-10T21:23:48.981Z,6.40
2017-11-10T21:26:16.628Z,6.40
2017-11-10T21:28:44.777Z,6.40
2017-11-10T21:31:12.585Z,6.30
2017-11-10T21:33:40.245Z,6.40
2017-11-10T21:36:07.915Z,6.20
2017-11-10T21:41:18.443Z,6.00
2017-11-10T21:43:46.408Z,6.10
2017-11-10T21:46:14.247Z,6.00
2017-11-10T21:48:42.832Z,6.00
2017-11-10T21:51:10.465Z,6.00
2017-11-10T21:53:38.093Z,6.10
2017-11-10T21:56:06.261Z,6.10
2017-11-10T21:58:33.885Z,6.10
2017-11-10T22:03:29.218Z,6.10
2017-11-10T22:05:56.870Z,6.10
2017-11-10T22:10:52.194Z,6.20
2017-11-10T22:13:19.827Z,6.30
2017-11-10T22:15:47.464Z,6.40
2017-11-10T22:18:15.183Z,6.40
2017-11-10T22:20:42.807Z,6.50
2017-11-10T22:23:10.451Z,6.50
2017-11-10T22:25:38.158Z,6.50
2017-11-10T22:28:05.798Z,6.50
2017-11-10T22:30:33.434Z,6.40
2017-11-10T22:33:01.152Z,6.50
2017-11-10T22:35:28.779Z,6.40
2017-11-10T22:40:24.802Z,6.30
2017-11-10T22:42:52.450Z,6.10
2017-11-10T22:45:20.088Z,6.20
2017-11-10T22:47:47.765Z,6.30
2017-11-10T22:50:15.395Z,6.20
2017-11-10T22:52:43.037Z,6.30
2017-11-10T22:55:10.734Z,6.30
2017-11-10T22:57:38.440Z,6.30
2017-11-10T23:00:06.767Z,6.40
2017-11-10T23:02:34.455Z,6.40
2017-11-10T23:07:41.298Z,6.40
2017-11-10T23:10:08.929Z,6.40
2017-11-10T23:12:36.548Z,6.50
2017-11-10T23:15:04.304Z,6.40
2017-11-10T23:17:31.953Z,6.40
2017-11-10T23:19:59.623Z,6.40
2017-11-10T23:22:27.313Z,6.40
2017-11-10T23:24:54.943Z,6.40
2017-11-10T23:27:23.406Z,6.50
2017-11-10T23:29:51.106Z,6.40
2017-11-10T23:32:18.750Z,6.20
2017-11-10T23:34:46.396Z,6.20
2017-11-10T23:37:14.095Z,6.20
2017-11-10T23:39:41.731Z,6.30
2017-11-10T23:42:09.364Z,6.30
2017-11-10T23:44:37.541Z,6.20
2017-11-10T23:47:05.177Z,6.30
2017-11-10T23:49:32.820Z,6.30
2017-11-10T23:52:00.606Z,6.40
2017-11-10T23:54:28.250Z,6.50
2017-11-10T23:56:56.837Z,6.50
2017-11-10T23:59:25.457Z,6.50
